sensor_id;sensor_type;location;lat;lon;timestamp;P1;durP1;ratioP1;P2;durP2;ratioP2
60464;SDS011;46314;52.392;9.758;2023-08-24T00:00:25;4.13;;;3.63;;
60464;SDS011;46314;52.392;9.758;2023-08-24T00:02:52;4.85;;;3.88;;
60464;SDS011;46314;52.392;9.758;2023-08-24T00:05:19;5.88;;;4.10;;
60464;SDS011;46314;52.392;9.758;2023-08-24T00:07:47;5.50;;;3.75;;
60464;SDS011;46314;52.392;9.758;2023-08-24T00:10:14;5.80;;;4.40;;
60464;SDS011;46314;52.392;9.758;2023-08-24T00:12:40;5.13;;;3.85;;
60464;SDS011;46314;52.392;9.758;2023-08-24T00:15:08;6.68;;;3.85;;
60464;SDS011;46314;52.392;9.758;2023-08-24T00:17:35;3.67;;;3.22;;
60464;SDS011;46314;52.392;9.758;2023-08-24T00:20:02;5.45;;;3.78;;
60464;SDS011;46314;52.392;9.758;2023-08-24T00:22:29;10.80;;;3.80;;
60464;SDS011;46314;52.392;9.758;2023-08-24T00:24:56;5.25;;;3.50;;
60464;SDS011;46314;52.392;9.758;2023-08-24T00:27:23;9.18;;;3.85;;
60464;SDS011;46314;52.392;9.758;2023-08-24T00:29:49;6.90;;;3.88;;
60464;SDS011;46314;52.392;9.758;2023-08-24T00:32:16;5.30;;;4.18;;
60464;SDS011;46314;52.392;9.758;2023-08-24T00:34:42;4.68;;;3.53;;
60464;SDS011;46314;52.392;9.758;2023-08-24T00:37:09;4.30;;;3.53;;
60464;SDS011;46314;52.392;9.758;2023-08-24T00:39:35;6.53;;;4.03;;
60464;SDS011;46314;52.392;9.758;2023-08-24T00:42:03;5.05;;;3.50;;
60464;SDS011;46314;52.392;9.758;2023-08-24T00:44:29;4.45;;;3.80;;
60464;SDS011;46314;52.392;9.758;2023-08-24T00:46:56;5.53;;;3.75;;
60464;SDS011;46314;52.392;9.758;2023-08-24T00:49:24;6.30;;;4.20;;
60464;SDS011;46314;52.392;9.758;2023-08-24T00:51:51;5.32;;;3.90;;
60464;SDS011;46314;52.392;9.758;2023-08-24T00:54:18;4.55;;;3.63;;
60464;SDS011;46314;52.392;9.758;2023-08-24T00:56:45;6.45;;;4.25;;
60464;SDS011;46314;52.392;9.758;2023-08-24T00:59:13;6.15;;;3.70;;
60464;SDS011;46314;52.392;9.758;2023-08-24T01:01:39;5.40;;;4.13;;
60464;SDS011;46314;52.392;9.758;2023-08-24T01:04:09;8.13;;;4.35;;
60464;SDS011;46314;52.392;9.758;2023-08-24T01:06:36;5.05;;;3.92;;
60464;SDS011;46314;52.392;9.758;2023-08-24T01:09:03;5.30;;;3.50;;
60464;SDS011;46314;52.392;9.758;2023-08-24T01:11:31;7.22;;;4.05;;
60464;SDS011;46314;52.392;9.758;2023-08-24T01:14:08;7.47;;;3.95;;
60464;SDS011;46314;52.392;9.758;2023-08-24T01:16:41;5.10;;;4.00;;
60464;SDS011;46314;52.392;9.758;2023-08-24T01:19:14;8.93;;;4.13;;
60464;SDS011;46314;52.392;9.758;2023-08-24T01:21:52;4.80;;;3.67;;
60464;SDS011;46314;52.392;9.758;2023-08-24T01:24:24;5.25;;;3.88;;
60464;SDS011;46314;52.392;9.758;2023-08-24T01:26:58;5.47;;;3.60;;
60464;SDS011;46314;52.392;9.758;2023-08-24T01:29:25;4.22;;;3.58;;
60464;SDS011;46314;52.392;9.758;2023-08-24T01:31:52;4.68;;;4.18;;
60464;SDS011;46314;52.392;9.758;2023-08-24T01:34:18;5.53;;;3.58;;
60464;SDS011;46314;52.392;9.758;2023-08-24T01:36:45;5.20;;;3.55;;
60464;SDS011;46314;52.392;9.758;2023-08-24T01:39:16;4.63;;;3.92;;
60464;SDS011;46314;52.392;9.758;2023-08-24T01:41:51;4.50;;;3.78;;
60464;SDS011;46314;52.392;9.758;2023-08-24T01:44:22;10.23;;;3.90;;
60464;SDS011;46314;52.392;9.758;2023-08-24T01:46:53;14.90;;;4.25;;
60464;SDS011;46314;52.392;9.758;2023-08-24T01:49:21;5.53;;;4.30;;
60464;SDS011;46314;52.392;9.758;2023-08-24T01:51:49;7.63;;;4.18;;
60464;SDS011;46314;52.392;9.758;2023-08-24T01:54:16;5.40;;;3.85;;
60464;SDS011;46314;52.392;9.758;2023-08-24T01:56:43;5.13;;;4.00;;
60464;SDS011;46314;52.392;9.758;2023-08-24T01:59:09;5.95;;;4.68;;
60464;SDS011;46314;52.392;9.758;2023-08-24T02:01:37;6.03;;;4.10;;
60464;SDS011;46314;52.392;9.758;2023-08-24T02:04:03;5.32;;;4.10;;
60464;SDS011;46314;52.392;9.758;2023-08-24T02:06:31;4.75;;;4.25;;
60464;SDS011;46314;52.392;9.758;2023-08-24T02:08:57;5.70;;;4.22;;
60464;SDS011;46314;52.392;9.758;2023-08-24T02:11:24;9.63;;;4.72;;
60464;SDS011;46314;52.392;9.758;2023-08-24T02:13:50;6.13;;;4.35;;
60464;SDS011;46314;52.392;9.758;2023-08-24T02:16:17;8.75;;;4.07;;
60464;SDS011;46314;52.392;9.758;2023-08-24T02:18:45;5.05;;;4.55;;
60464;SDS011;46314;52.392;9.758;2023-08-24T02:21:11;5.03;;;4.53;;
60464;SDS011;46314;52.392;9.758;2023-08-24T02:23:38;5.90;;;4.32;;
60464;SDS011;46314;52.392;9.758;2023-08-24T02:26:05;7.32;;;4.20;;
60464;SDS011;46314;52.392;9.758;2023-08-24T02:28:32;5.43;;;4.40;;
60464;SDS011;46314;52.392;9.758;2023-08-24T02:31:00;5.97;;;4.60;;
60464;SDS011;46314;52.392;9.758;2023-08-24T02:33:27;5.00;;;4.28;;
60464;SDS011;46314;52.392;9.758;2023-08-24T02:35:55;8.63;;;5.20;;
60464;SDS011;46314;52.392;9.758;2023-08-24T02:38:22;5.18;;;4.65;;
60464;SDS011;46314;52.392;9.758;2023-08-24T02:40:49;6.57;;;4.65;;
60464;SDS011;46314;52.392;9.758;2023-08-24T02:43:15;6.97;;;5.53;;
60464;SDS011;46314;52.392;9.758;2023-08-24T02:45:42;6.57;;;4.97;;
60464;SDS011;46314;52.392;9.758;2023-08-24T02:48:08;8.38;;;4.93;;
60464;SDS011;46314;52.392;9.758;2023-08-24T02:50:35;8.75;;;5.30;;
60464;SDS011;46314;52.392;9.758;2023-08-24T02:53:03;6.25;;;4.45;;
60464;SDS011;46314;52.392;9.758;2023-08-24T02:55:31;6.18;;;4.53;;
60464;SDS011;46314;52.392;9.758;2023-08-24T02:57:58;7.13;;;4.43;;
60464;SDS011;46314;52.392;9.758;2023-08-24T03:00:25;6.68;;;4.47;;
60464;SDS011;46314;52.392;9.758;2023-08-24T03:02:52;6.38;;;4.32;;
60464;SDS011;46314;52.392;9.758;2023-08-24T03:05:18;7.20;;;4.40;;
60464;SDS011;46314;52.392;9.758;2023-08-24T03:07:45;9.57;;;4.18;;
60464;SDS011;46314;52.392;9.758;2023-08-24T03:10:13;6.03;;;4.03;;
60464;SDS011;46314;52.392;9.758;2023-08-24T03:12:39;4.93;;;3.70;;
60464;SDS011;46314;52.392;9.758;2023-08-24T03:15:06;4.90;;;3.88;;
60464;SDS011;46314;52.392;9.758;2023-08-24T03:17:33;6.38;;;4.35;;
60464;SDS011;46314;52.392;9.758;2023-08-24T03:20:00;8.43;;;4.47;;
60464;SDS011;46314;52.392;9.758;2023-08-24T03:22:26;5.57;;;4.30;;
60464;SDS011;46314;52.392;9.758;2023-08-24T03:24:53;6.18;;;4.30;;
60464;SDS011;46314;52.392;9.758;2023-08-24T03:27:21;6.05;;;4.72;;
60464;SDS011;46314;52.392;9.758;2023-08-24T03:29:47;4.75;;;4.28;;
60464;SDS011;46314;52.392;9.758;2023-08-24T03:32:13;5.68;;;4.43;;
60464;SDS011;46314;52.392;9.758;2023-08-24T03:34:40;5.47;;;4.53;;
60464;SDS011;46314;52.392;9.758;2023-08-24T03:37:06;8.05;;;3.88;;
60464;SDS011;46314;52.392;9.758;2023-08-24T03:39:33;6.28;;;3.75;;
60464;SDS011;46314;52.392;9.758;2023-08-24T03:42:02;5.43;;;3.97;;
60464;SDS011;46314;52.392;9.758;2023-08-24T03:44:30;8.57;;;4.75;;
60464;SDS011;46314;52.392;9.758;2023-08-24T03:46:57;4.70;;;4.00;;
60464;SDS011;46314;52.392;9.758;2023-08-24T03:49:23;5.03;;;4.53;;
60464;SDS011;46314;52.392;9.758;2023-08-24T03:51:50;6.28;;;4.63;;
60464;SDS011;46314;52.392;9.758;2023-08-24T03:54:16;5.72;;;4.03;;
60464;SDS011;46314;52.392;9.758;2023-08-24T03:56:42;5.13;;;4.30;;
60464;SDS011;46314;52.392;9.758;2023-08-24T03:59:09;6.53;;;4.18;;
60464;SDS011;46314;52.392;9.758;2023-08-24T04:01:37;7.43;;;4.40;;
60464;SDS011;46314;52.392;9.758;2023-08-24T04:04:03;8.82;;;4.55;;
60464;SDS011;46314;52.392;9.758;2023-08-24T04:06:30;6.10;;;4.05;;
60464;SDS011;46314;52.392;9.758;2023-08-24T04:08:56;7.38;;;4.70;;
60464;SDS011;46314;52.392;9.758;2023-08-24T04:11:23;7.03;;;4.68;;
60464;SDS011;46314;52.392;9.758;2023-08-24T04:13:49;7.00;;;4.65;;
60464;SDS011;46314;52.392;9.758;2023-08-24T04:16:16;5.18;;;4.53;;
60464;SDS011;46314;52.392;9.758;2023-08-24T04:18:43;7.10;;;4.00;;
60464;SDS011;46314;52.392;9.758;2023-08-24T04:21:10;5.25;;;4.32;;
60464;SDS011;46314;52.392;9.758;2023-08-24T04:23:37;7.03;;;5.13;;
60464;SDS011;46314;52.392;9.758;2023-08-24T04:26:03;7.63;;;5.00;;
60464;SDS011;46314;52.392;9.758;2023-08-24T04:28:30;5.10;;;4.60;;
60464;SDS011;46314;52.392;9.758;2023-08-24T04:30:56;6.25;;;5.35;;
60464;SDS011;46314;52.392;9.758;2023-08-24T04:33:23;6.88;;;4.70;;
60464;SDS011;46314;52.392;9.758;2023-08-24T04:35:51;7.03;;;4.38;;
60464;SDS011;46314;52.392;9.758;2023-08-24T04:38:17;6.43;;;4.82;;
60464;SDS011;46314;52.392;9.758;2023-08-24T04:40:51;5.75;;;4.90;;
60464;SDS011;46314;52.392;9.758;2023-08-24T04:43:18;8.23;;;4.88;;
60464;SDS011;46314;52.392;9.758;2023-08-24T04:45:46;6.90;;;4.45;;
60464;SDS011;46314;52.392;9.758;2023-08-24T04:48:12;7.28;;;4.50;;
60464;SDS011;46314;52.392;9.758;2023-08-24T04:50:39;6.53;;;4.78;;
60464;SDS011;46314;52.392;9.758;2023-08-24T04:53:07;4.75;;;4.20;;
60464;SDS011;46314;52.392;9.758;2023-08-24T04:55:33;7.68;;;4.80;;
60464;SDS011;46314;52.392;9.758;2023-08-24T04:58:00;8.65;;;4.72;;
60464;SDS011;46314;52.392;9.758;2023-08-24T05:00:26;6.88;;;5.65;;
60464;SDS011;46314;52.392;9.758;2023-08-24T05:02:53;7.60;;;5.68;;
60464;SDS011;46314;52.392;9.758;2023-08-24T05:05:19;7.88;;;5.93;;
60464;SDS011;46314;52.392;9.758;2023-08-24T05:07:46;6.95;;;6.05;;
60464;SDS011;46314;52.392;9.758;2023-08-24T05:10:14;9.32;;;6.22;;
60464;SDS011;46314;52.392;9.758;2023-08-24T05:12:40;10.82;;;6.40;;
60464;SDS011;46314;52.392;9.758;2023-08-24T05:15:07;7.35;;;6.47;;
60464;SDS011;46314;52.392;9.758;2023-08-24T05:17:35;8.85;;;6.75;;
60464;SDS011;46314;52.392;9.758;2023-08-24T05:20:01;9.82;;;7.10;;
60464;SDS011;46314;52.392;9.758;2023-08-24T05:22:28;9.07;;;7.57;;
60464;SDS011;46314;52.392;9.758;2023-08-24T05:24:54;12.13;;;8.13;;
60464;SDS011;46314;52.392;9.758;2023-08-24T05:27:22;10.20;;;6.88;;
60464;SDS011;46314;52.392;9.758;2023-08-24T05:29:49;9.57;;;7.43;;
60464;SDS011;46314;52.392;9.758;2023-08-24T05:32:15;10.13;;;7.30;;
60464;SDS011;46314;52.392;9.758;2023-08-24T05:34:42;8.90;;;7.30;;
60464;SDS011;46314;52.392;9.758;2023-08-24T05:37:08;9.68;;;7.53;;
60464;SDS011;46314;52.392;9.758;2023-08-24T05:39:35;7.70;;;6.85;;
60464;SDS011;46314;52.392;9.758;2023-08-24T05:42:01;9.43;;;7.63;;
60464;SDS011;46314;52.392;9.758;2023-08-24T05:44:29;9.98;;;7.03;;
60464;SDS011;46314;52.392;9.758;2023-08-24T05:46:55;8.85;;;7.35;;
60464;SDS011;46314;52.392;9.758;2023-08-24T05:49:22;8.18;;;7.22;;
60464;SDS011;46314;52.392;9.758;2023-08-24T05:51:49;10.68;;;7.68;;
60464;SDS011;46314;52.392;9.758;2023-08-24T05:54:17;7.60;;;6.55;;
60464;SDS011;46314;52.392;9.758;2023-08-24T05:56:44;11.30;;;7.20;;
60464;SDS011;46314;52.392;9.758;2023-08-24T05:59:10;10.00;;;6.40;;
60464;SDS011;46314;52.392;9.758;2023-08-24T06:01:38;6.53;;;5.88;;
60464;SDS011;46314;52.392;9.758;2023-08-24T06:04:05;9.55;;;5.45;;
60464;SDS011;46314;52.392;9.758;2023-08-24T06:06:31;9.85;;;5.22;;
60464;SDS011;46314;52.392;9.758;2023-08-24T06:08:58;5.65;;;5.13;;
60464;SDS011;46314;52.392;9.758;2023-08-24T06:11:24;6.70;;;6.10;;
60464;SDS011;46314;52.392;9.758;2023-08-24T06:13:51;8.13;;;5.43;;
60464;SDS011;46314;52.392;9.758;2023-08-24T06:16:17;7.15;;;6.40;;
60464;SDS011;46314;52.392;9.758;2023-08-24T06:18:45;10.05;;;7.28;;
60464;SDS011;46314;52.392;9.758;2023-08-24T06:21:12;10.05;;;7.10;;
60464;SDS011;46314;52.392;9.758;2023-08-24T06:23:38;9.68;;;8.48;;
60464;SDS011;46314;52.392;9.758;2023-08-24T06:26:05;7.95;;;7.07;;
60464;SDS011;46314;52.392;9.758;2023-08-24T06:28:31;9.45;;;8.48;;
60464;SDS011;46314;52.392;9.758;2023-08-24T06:30:59;10.48;;;6.80;;
60464;SDS011;46314;52.392;9.758;2023-08-24T06:33:27;8.48;;;7.10;;
60464;SDS011;46314;52.392;9.758;2023-08-24T06:35:55;7.82;;;7.05;;
60464;SDS011;46314;52.392;9.758;2023-08-24T06:38:21;9.70;;;7.65;;
60464;SDS011;46314;52.392;9.758;2023-08-24T06:40:48;9.57;;;7.65;;
60464;SDS011;46314;52.392;9.758;2023-08-24T06:43:14;10.40;;;8.05;;
60464;SDS011;46314;52.392;9.758;2023-08-24T06:45:41;10.45;;;6.95;;
60464;SDS011;46314;52.392;9.758;2023-08-24T06:48:07;10.68;;;7.72;;
60464;SDS011;46314;52.392;9.758;2023-08-24T06:50:34;11.27;;;6.63;;
60464;SDS011;46314;52.392;9.758;2023-08-24T06:53:02;7.75;;;7.03;;
60464;SDS011;46314;52.392;9.758;2023-08-24T06:55:29;10.95;;;6.97;;
60464;SDS011;46314;52.392;9.758;2023-08-24T06:57:55;8.15;;;6.43;;
60464;SDS011;46314;52.392;9.758;2023-08-24T07:00:22;9.60;;;6.57;;
60464;SDS011;46314;52.392;9.758;2023-08-24T07:02:51;10.07;;;6.07;;
60464;SDS011;46314;52.392;9.758;2023-08-24T07:05:17;7.65;;;6.75;;
60464;SDS011;46314;52.392;9.758;2023-08-24T07:07:44;8.45;;;7.03;;
60464;SDS011;46314;52.392;9.758;2023-08-24T07:10:12;13.18;;;6.18;;
60464;SDS011;46314;52.392;9.758;2023-08-24T07:12:39;8.57;;;7.30;;
60464;SDS011;46314;52.392;9.758;2023-08-24T07:15:05;6.95;;;6.15;;
60464;SDS011;46314;52.392;9.758;2023-08-24T07:17:33;10.13;;;6.40;;
60464;SDS011;46314;52.392;9.758;2023-08-24T07:19:59;7.47;;;6.65;;
60464;SDS011;46314;52.392;9.758;2023-08-24T07:22:26;13.23;;;7.05;;
60464;SDS011;46314;52.392;9.758;2023-08-24T07:24:52;8.98;;;5.80;;
60464;SDS011;46314;52.392;9.758;2023-08-24T07:27:20;10.63;;;6.65;;
60464;SDS011;46314;52.392;9.758;2023-08-24T07:29:46;8.13;;;6.47;;
60464;SDS011;46314;52.392;9.758;2023-08-24T07:32:13;7.93;;;7.00;;
60464;SDS011;46314;52.392;9.758;2023-08-24T07:34:40;9.10;;;7.00;;
60464;SDS011;46314;52.392;9.758;2023-08-24T07:37:06;8.05;;;6.65;;
60464;SDS011;46314;52.392;9.758;2023-08-24T07:39:33;7.72;;;6.65;;
60464;SDS011;46314;52.392;9.758;2023-08-24T07:41:59;6.75;;;6.15;;
60464;SDS011;46314;52.392;9.758;2023-08-24T07:44:27;13.68;;;7.03;;
60464;SDS011;46314;52.392;9.758;2023-08-24T07:46:54;7.38;;;6.32;;
60464;SDS011;46314;52.392;9.758;2023-08-24T07:49:20;10.45;;;6.93;;
60464;SDS011;46314;52.392;9.758;2023-08-24T07:51:47;10.55;;;7.22;;
60464;SDS011;46314;52.392;9.758;2023-08-24T07:54:13;8.65;;;6.90;;
60464;SDS011;46314;52.392;9.758;2023-08-24T07:56:40;9.70;;;7.50;;
60464;SDS011;46314;52.392;9.758;2023-08-24T07:59:06;10.63;;;7.65;;
60464;SDS011;46314;52.392;9.758;2023-08-24T08:01:34;8.63;;;6.45;;
60464;SDS011;46314;52.392;9.758;2023-08-24T08:04:01;9.10;;;7.03;;
60464;SDS011;46314;52.392;9.758;2023-08-24T08:06:27;9.20;;;7.53;;
60464;SDS011;46314;52.392;9.758;2023-08-24T08:08:54;7.80;;;7.10;;
60464;SDS011;46314;52.392;9.758;2023-08-24T08:11:20;7.97;;;7.13;;
60464;SDS011;46314;52.392;9.758;2023-08-24T08:13:47;8.63;;;7.38;;
60464;SDS011;46314;52.392;9.758;2023-08-24T08:16:13;10.02;;;6.97;;
60464;SDS011;46314;52.392;9.758;2023-08-24T08:18:41;9.63;;;7.00;;
60464;SDS011;46314;52.392;9.758;2023-08-24T08:21:10;10.10;;;7.32;;
60464;SDS011;46314;52.392;9.758;2023-08-24T08:23:40;8.07;;;7.28;;
60464;SDS011;46314;52.392;9.758;2023-08-24T08:26:07;8.07;;;6.78;;
60464;SDS011;46314;52.392;9.758;2023-08-24T08:28:36;9.23;;;7.45;;
60464;SDS011;46314;52.392;9.758;2023-08-24T08:31:02;12.18;;;7.05;;
60464;SDS011;46314;52.392;9.758;2023-08-24T08:33:29;8.18;;;6.93;;
60464;SDS011;46314;52.392;9.758;2023-08-24T08:35:57;9.73;;;6.57;;
60464;SDS011;46314;52.392;9.758;2023-08-24T08:38:23;8.73;;;6.88;;
60464;SDS011;46314;52.392;9.758;2023-08-24T08:40:50;7.07;;;6.22;;
60464;SDS011;46314;52.392;9.758;2023-08-24T08:43:16;14.50;;;6.47;;
60464;SDS011;46314;52.392;9.758;2023-08-24T08:45:43;6.18;;;5.57;;
60464;SDS011;46314;52.392;9.758;2023-08-24T08:48:10;7.00;;;5.78;;
60464;SDS011;46314;52.392;9.758;2023-08-24T08:50:37;7.72;;;4.90;;
60464;SDS011;46314;52.392;9.758;2023-08-24T08:53:05;6.28;;;5.68;;
60464;SDS011;46314;52.392;9.758;2023-08-24T08:55:32;6.53;;;5.88;;
60464;SDS011;46314;52.392;9.758;2023-08-24T08:57:59;7.93;;;5.88;;
60464;SDS011;46314;52.392;9.758;2023-08-24T09:00:26;7.32;;;5.93;;
60464;SDS011;46314;52.392;9.758;2023-08-24T09:02:54;6.03;;;5.43;;
60464;SDS011;46314;52.392;9.758;2023-08-24T09:05:23;5.32;;;4.93;;
60464;SDS011;46314;52.392;9.758;2023-08-24T09:07:50;5.65;;;5.00;;
60464;SDS011;46314;52.392;9.758;2023-08-24T09:10:18;6.93;;;5.55;;
60464;SDS011;46314;52.392;9.758;2023-08-24T09:12:45;6.93;;;5.40;;
60464;SDS011;46314;52.392;9.758;2023-08-24T09:15:11;12.80;;;6.90;;
60464;SDS011;46314;52.392;9.758;2023-08-24T09:17:48;6.82;;;5.80;;
60464;SDS011;46314;52.392;9.758;2023-08-24T09:20:15;8.32;;;5.85;;
60464;SDS011;46314;52.392;9.758;2023-08-24T09:22:42;7.65;;;5.20;;
60464;SDS011;46314;52.392;9.758;2023-08-24T09:25:09;8.80;;;5.97;;
60464;SDS011;46314;52.392;9.758;2023-08-24T09:27:37;7.30;;;5.43;;
60464;SDS011;46314;52.392;9.758;2023-08-24T09:30:04;6.45;;;5.70;;
60464;SDS011;46314;52.392;9.758;2023-08-24T09:32:32;7.60;;;5.20;;
60464;SDS011;46314;52.392;9.758;2023-08-24T09:35:01;8.02;;;5.28;;
60464;SDS011;46314;52.392;9.758;2023-08-24T09:37:30;10.77;;;5.65;;
60464;SDS011;46314;52.392;9.758;2023-08-24T09:40:00;6.47;;;5.45;;
60464;SDS011;46314;52.392;9.758;2023-08-24T09:42:28;5.05;;;4.55;;
60464;SDS011;46314;52.392;9.758;2023-08-24T09:44:56;6.10;;;5.53;;
60464;SDS011;46314;52.392;9.758;2023-08-24T09:47:29;5.63;;;5.10;;
60464;SDS011;46314;52.392;9.758;2023-08-24T09:49:55;4.93;;;4.53;;
60464;SDS011;46314;52.392;9.758;2023-08-24T09:52:22;7.65;;;5.30;;
60464;SDS011;46314;52.392;9.758;2023-08-24T09:54:54;9.50;;;5.00;;
60464;SDS011;46314;52.392;9.758;2023-08-24T09:57:21;5.82;;;5.13;;
60464;SDS011;46314;52.392;9.758;2023-08-24T09:59:48;5.22;;;4.63;;
60464;SDS011;46314;52.392;9.758;2023-08-24T10:02:20;5.88;;;5.05;;
60464;SDS011;46314;52.392;9.758;2023-08-24T10:04:49;6.90;;;4.45;;
60464;SDS011;46314;52.392;9.758;2023-08-24T10:07:19;6.38;;;4.50;;
60464;SDS011;46314;52.392;9.758;2023-08-24T10:09:51;10.02;;;5.75;;
60464;SDS011;46314;52.392;9.758;2023-08-24T10:12:23;6.40;;;4.63;;
60464;SDS011;46314;52.392;9.758;2023-08-24T10:14:53;8.90;;;4.90;;
60464;SDS011;46314;52.392;9.758;2023-08-24T10:17:26;6.38;;;5.68;;
60464;SDS011;46314;52.392;9.758;2023-08-24T10:19:54;5.68;;;4.75;;
60464;SDS011;46314;52.392;9.758;2023-08-24T10:22:24;5.60;;;5.07;;
60464;SDS011;46314;52.392;9.758;2023-08-24T10:24:51;5.63;;;4.80;;
60464;SDS011;46314;52.392;9.758;2023-08-24T10:27:19;6.63;;;5.10;;
60464;SDS011;46314;52.392;9.758;2023-08-24T10:29:47;6.25;;;5.32;;
60464;SDS011;46314;52.392;9.758;2023-08-24T10:32:13;6.82;;;5.07;;
60464;SDS011;46314;52.392;9.758;2023-08-24T10:34:42;5.45;;;4.75;;
60464;SDS011;46314;52.392;9.758;2023-08-24T10:37:09;6.53;;;5.43;;
60464;SDS011;46314;52.392;9.758;2023-08-24T10:39:37;5.30;;;4.65;;
60464;SDS011;46314;52.392;9.758;2023-08-24T10:42:10;7.17;;;5.67;;
60464;SDS011;46314;52.392;9.758;2023-08-24T10:44:38;8.93;;;5.10;;
60464;SDS011;46314;52.392;9.758;2023-08-24T10:47:05;9.70;;;5.72;;
60464;SDS011;46314;52.392;9.758;2023-08-24T10:49:32;6.25;;;4.97;;
60464;SDS011;46314;52.392;9.758;2023-08-24T10:54:47;9.40;;;5.18;;
60464;SDS011;46314;52.392;9.758;2023-08-24T10:57:18;6.03;;;4.78;;
60464;SDS011;46314;52.392;9.758;2023-08-24T10:59:45;7.13;;;5.85;;
60464;SDS011;46314;52.392;9.758;2023-08-24T11:02:17;6.22;;;5.15;;
60464;SDS011;46314;52.392;9.758;2023-08-24T11:07:34;14.63;;;6.07;;
60464;SDS011;46314;52.392;9.758;2023-08-24T11:10:10;13.55;;;6.95;;
60464;SDS011;46314;52.392;9.758;2023-08-24T11:15:33;16.58;;;5.88;;
60464;SDS011;46314;52.392;9.758;2023-08-24T11:18:10;17.63;;;6.43;;
60464;SDS011;46314;52.392;9.758;2023-08-24T11:20:48;10.82;;;6.13;;
60464;SDS011;46314;52.392;9.758;2023-08-24T11:23:17;9.75;;;5.93;;
60464;SDS011;46314;52.392;9.758;2023-08-24T11:25:44;10.05;;;5.50;;
60464;SDS011;46314;52.392;9.758;2023-08-24T11:28:11;9.70;;;5.40;;
60464;SDS011;46314;52.392;9.758;2023-08-24T11:30:42;9.93;;;6.38;;
60464;SDS011;46314;52.392;9.758;2023-08-24T11:33:09;14.00;;;7.25;;
60464;SDS011;46314;52.392;9.758;2023-08-24T11:35:35;5.72;;;5.15;;
60464;SDS011;46314;52.392;9.758;2023-08-24T11:38:02;7.55;;;5.22;;
60464;SDS011;46314;52.392;9.758;2023-08-24T11:40:30;6.85;;;4.93;;
60464;SDS011;46314;52.392;9.758;2023-08-24T11:42:57;7.97;;;5.20;;
60464;SDS011;46314;52.392;9.758;2023-08-24T11:45:29;7.55;;;4.47;;
60464;SDS011;46314;52.392;9.758;2023-08-24T11:47:57;5.00;;;4.50;;
60464;SDS011;46314;52.392;9.758;2023-08-24T11:50:24;7.40;;;4.80;;
60464;SDS011;46314;52.392;9.758;2023-08-24T11:52:52;6.72;;;4.45;;
60464;SDS011;46314;52.392;9.758;2023-08-24T11:55:20;6.63;;;4.57;;
60464;SDS011;46314;52.392;9.758;2023-08-24T11:57:48;8.20;;;4.57;;
60464;SDS011;46314;52.392;9.758;2023-08-24T12:00:15;4.32;;;3.92;;
60464;SDS011;46314;52.392;9.758;2023-08-24T12:02:43;6.55;;;4.47;;
60464;SDS011;46314;52.392;9.758;2023-08-24T12:05:19;5.43;;;3.83;;
60464;SDS011;46314;52.392;9.758;2023-08-24T12:07:47;5.25;;;4.60;;
60464;SDS011;46314;52.392;9.758;2023-08-24T12:10:13;4.65;;;4.25;;
60464;SDS011;46314;52.392;9.758;2023-08-24T12:12:40;4.60;;;4.20;;
60464;SDS011;46314;52.392;9.758;2023-08-24T12:15:14;5.13;;;4.15;;
60464;SDS011;46314;52.392;9.758;2023-08-24T12:17:42;5.63;;;4.40;;
60464;SDS011;46314;52.392;9.758;2023-08-24T12:20:15;4.75;;;4.25;;
60464;SDS011;46314;52.392;9.758;2023-08-24T12:22:43;6.90;;;3.78;;
60464;SDS011;46314;52.392;9.758;2023-08-24T12:25:10;4.82;;;3.25;;
60464;SDS011;46314;52.392;9.758;2023-08-24T12:27:36;3.97;;;3.58;;
60464;SDS011;46314;52.392;9.758;2023-08-24T12:30:03;4.13;;;3.38;;
60464;SDS011;46314;52.392;9.758;2023-08-24T12:32:44;5.28;;;3.58;;
60464;SDS011;46314;52.392;9.758;2023-08-24T12:35:13;7.78;;;4.10;;
60464;SDS011;46314;52.392;9.758;2023-08-24T12:37:40;4.43;;;3.22;;
60464;SDS011;46314;52.392;9.758;2023-08-24T12:40:07;3.47;;;3.17;;
60464;SDS011;46314;52.392;9.758;2023-08-24T12:42:34;6.30;;;3.38;;
60464;SDS011;46314;52.392;9.758;2023-08-24T12:45:12;3.95;;;3.40;;
60464;SDS011;46314;52.392;9.758;2023-08-24T12:47:38;3.97;;;3.20;;
60464;SDS011;46314;52.392;9.758;2023-08-24T12:50:07;4.60;;;3.42;;
60464;SDS011;46314;52.392;9.758;2023-08-24T12:52:34;3.95;;;2.85;;
60464;SDS011;46314;52.392;9.758;2023-08-24T12:55:00;5.18;;;3.55;;
60464;SDS011;46314;52.392;9.758;2023-08-24T12:57:27;11.00;;;3.85;;
60464;SDS011;46314;52.392;9.758;2023-08-24T12:59:54;4.55;;;3.33;;
60464;SDS011;46314;52.392;9.758;2023-08-24T13:02:21;5.28;;;3.30;;
60464;SDS011;46314;52.392;9.758;2023-08-24T13:04:58;3.63;;;3.33;;
60464;SDS011;46314;52.392;9.758;2023-08-24T13:07:26;6.50;;;3.25;;
60464;SDS011;46314;52.392;9.758;2023-08-24T13:09:53;4.93;;;3.30;;
60464;SDS011;46314;52.392;9.758;2023-08-24T13:12:20;5.05;;;3.50;;
60464;SDS011;46314;52.392;9.758;2023-08-24T13:14:46;3.83;;;3.20;;
60464;SDS011;46314;52.392;9.758;2023-08-24T13:17:13;5.10;;;3.97;;
60464;SDS011;46314;52.392;9.758;2023-08-24T13:19:39;4.82;;;3.60;;
60464;SDS011;46314;52.392;9.758;2023-08-24T13:22:06;3.63;;;3.33;;
60464;SDS011;46314;52.392;9.758;2023-08-24T13:24:33;5.80;;;3.60;;
60464;SDS011;46314;52.392;9.758;2023-08-24T13:27:00;4.95;;;3.63;;
60464;SDS011;46314;52.392;9.758;2023-08-24T13:29:26;6.03;;;3.65;;
60464;SDS011;46314;52.392;9.758;2023-08-24T13:31:53;3.88;;;3.08;;
60464;SDS011;46314;52.392;9.758;2023-08-24T13:34:19;6.55;;;3.92;;
60464;SDS011;46314;52.392;9.758;2023-08-24T13:36:46;6.93;;;3.22;;
60464;SDS011;46314;52.392;9.758;2023-08-24T13:39:12;5.10;;;3.10;;
60464;SDS011;46314;52.392;9.758;2023-08-24T13:41:40;3.70;;;2.90;;
60464;SDS011;46314;52.392;9.758;2023-08-24T13:44:07;3.63;;;2.70;;
60464;SDS011;46314;52.392;9.758;2023-08-24T13:46:33;3.28;;;2.50;;
60464;SDS011;46314;52.392;9.758;2023-08-24T13:49:00;3.35;;;2.83;;
60464;SDS011;46314;52.392;9.758;2023-08-24T13:51:26;3.03;;;2.72;;
60464;SDS011;46314;52.392;9.758;2023-08-24T13:53:52;6.22;;;3.95;;
60464;SDS011;46314;52.392;9.758;2023-08-24T13:56:19;4.55;;;3.10;;
60464;SDS011;46314;52.392;9.758;2023-08-24T13:58:47;5.53;;;3.33;;
60464;SDS011;46314;52.392;9.758;2023-08-24T14:01:14;5.70;;;3.22;;
60464;SDS011;46314;52.392;9.758;2023-08-24T14:03:40;8.60;;;3.28;;
60464;SDS011;46314;52.392;9.758;2023-08-24T14:06:07;4.82;;;2.70;;
60464;SDS011;46314;52.392;9.758;2023-08-24T14:08:34;4.82;;;3.03;;
60464;SDS011;46314;52.392;9.758;2023-08-24T14:11:01;3.80;;;2.35;;
60464;SDS011;46314;52.392;9.758;2023-08-24T14:13:27;6.60;;;3.35;;
60464;SDS011;46314;52.392;9.758;2023-08-24T14:15:55;4.70;;;3.05;;
60464;SDS011;46314;52.392;9.758;2023-08-24T14:18:21;4.70;;;3.25;;
60464;SDS011;46314;52.392;9.758;2023-08-24T14:20:48;3.72;;;2.85;;
60464;SDS011;46314;52.392;9.758;2023-08-24T14:23:15;3.85;;;2.40;;
60464;SDS011;46314;52.392;9.758;2023-08-24T14:25:41;4.90;;;3.25;;
60464;SDS011;46314;52.392;9.758;2023-08-24T14:28:08;4.82;;;2.90;;
60464;SDS011;46314;52.392;9.758;2023-08-24T14:30:36;5.78;;;3.08;;
60464;SDS011;46314;52.392;9.758;2023-08-24T14:33:06;7.60;;;3.03;;
60464;SDS011;46314;52.392;9.758;2023-08-24T14:35:32;8.98;;;3.85;;
60464;SDS011;46314;52.392;9.758;2023-08-24T14:37:59;4.82;;;3.63;;
60464;SDS011;46314;52.392;9.758;2023-08-24T14:40:26;3.97;;;3.50;;
60464;SDS011;46314;52.392;9.758;2023-08-24T14:42:52;5.65;;;3.70;;
60464;SDS011;46314;52.392;9.758;2023-08-24T14:45:19;4.40;;;3.50;;
60464;SDS011;46314;52.392;9.758;2023-08-24T14:47:46;5.32;;;2.95;;
60464;SDS011;46314;52.392;9.758;2023-08-24T14:50:14;3.92;;;3.53;;
60464;SDS011;46314;52.392;9.758;2023-08-24T14:52:41;6.93;;;3.78;;
60464;SDS011;46314;52.392;9.758;2023-08-24T14:55:07;6.65;;;3.30;;